createdAt,value
2022-08-07T07:58:11.875Z,22.42
2022-08-07T08:04:10.666Z,19.84
2022-08-07T08:04:31.293Z,19.83
2022-08-07T08:05:42.940Z,20.16
2022-08-07T08:06:30.527Z,20.77
2022-08-07T08:07:35.950Z,20.80
2022-08-07T08:08:34.862Z,20.73
2022-08-07T08:09:29.851Z,20.92
2022-08-07T08:10:37.807Z,21.17
2022-08-07T08:11:47.335Z,21.07
2022-08-07T08:12:52.064Z,21.16
2022-08-07T08:13:33.197Z,20.28
2022-08-07T08:14:29.302Z,19.94
2022-08-07T08:18:17.551Z,20.64
2022-08-07T08:20:16.080Z,20.61
2022-08-07T08:20:19.227Z,20.84
2022-08-07T08:21:14.224Z,20.61
2022-08-07T08:22:14.384Z,20.41
2022-08-07T08:23:14.368Z,20.23
2022-08-07T08:24:18.631Z,20.23
2022-08-07T08:30:02.860Z,20.41
2022-08-07T08:33:05.184Z,20.73
2022-08-07T08:34:05.444Z,20.84
2022-08-07T08:35:05.996Z,20.98
2022-08-07T08:36:05.172Z,20.17
2022-08-07T08:46:31.222Z,20.98
2022-08-07T08:47:34.402Z,21.32
2022-08-07T08:48:32.567Z,21.47
2022-08-07T08:49:33.313Z,21.50
2022-08-07T08:53:19.292Z,21.96
2022-08-07T08:54:19.476Z,21.98
2022-08-07T08:55:20.965Z,22.00
2022-08-07T08:56:18.893Z,21.82
2022-08-07T08:57:18.813Z,21.88
2022-08-07T08:58:20.389Z,21.65
2022-08-07T08:59:18.659Z,21.47
2022-08-07T09:03:49.308Z,21.09
2022-08-07T09:04:30.213Z,21.62
2022-08-07T09:05:36.634Z,22.06
2022-08-07T09:06:28.881Z,21.79
2022-08-07T09:07:28.901Z,21.49
2022-08-07T09:08:28.968Z,21.25
2022-08-07T09:09:33.108Z,21.21
2022-08-07T09:10:29.661Z,21.58
2022-08-07T09:11:43.695Z,22.06
2022-08-07T09:12:31.049Z,22.35
2022-08-07T09:13:38.034Z,22.58
2022-08-07T09:14:29.697Z,22.20
2022-08-07T09:16:23.616Z,22.24
2022-08-07T09:16:30.522Z,21.88
2022-08-07T09:17:33.941Z,21.42
2022-08-07T09:18:28.734Z,21.46
2022-08-07T09:19:53.773Z,21.49
2022-08-07T09:20:35.958Z,21.84
2022-08-07T09:21:58.288Z,21.80
2022-08-07T09:24:29.309Z,21.01
2022-08-07T09:24:30.644Z,20.79
2022-08-07T09:24:55.316Z,20.80
2022-08-07T09:25:29.635Z,21.17
2022-08-07T09:30:07.959Z,21.50
2022-08-07T09:31:01.434Z,21.79
2022-08-07T09:32:00.455Z,22.27
2022-08-07T09:33:05.311Z,22.65
2022-08-07T09:34:00.226Z,22.73
2022-08-07T09:35:04.455Z,22.72
2022-08-07T09:36:04.307Z,22.39
2022-08-07T09:37:00.195Z,22.51
2022-08-07T09:38:00.456Z,22.55
2022-08-07T09:39:00.263Z,22.65
2022-08-07T09:40:00.236Z,23.09
2022-08-07T09:41:00.156Z,23.09
2022-08-07T09:42:05.805Z,22.90
2022-08-07T09:43:00.150Z,23.02
2022-08-07T09:44:06.032Z,22.92
2022-08-07T09:47:24.494Z,22.72
2022-08-07T09:47:50.718Z,22.42
2022-08-07T09:47:55.202Z,21.86
2022-08-07T09:48:05.159Z,21.79
2022-08-07T09:50:02.723Z,21.47
2022-08-07T09:50:18.576Z,21.68
2022-08-07T09:51:00.011Z,21.72
2022-08-07T09:52:17.071Z,22.14
2022-08-07T09:52:59.990Z,22.65
2022-08-07T09:54:02.638Z,23.04
2022-08-07T09:54:59.993Z,23.39
2022-08-07T09:56:03.862Z,23.47
2022-08-07T09:57:00.006Z,23.87
2022-08-07T09:58:00.120Z,23.91
2022-08-07T09:58:59.916Z,24.18
2022-08-07T10:00:01.514Z,24.22
2022-08-07T10:00:59.893Z,23.04
2022-08-07T10:01:59.930Z,22.00
2022-08-07T10:03:07.970Z,22.03
2022-08-07T10:04:06.929Z,22.17
2022-08-07T10:05:01.035Z,21.79
2022-08-07T10:06:03.574Z,21.77
2022-08-07T10:07:01.073Z,21.72
2022-08-07T10:08:01.291Z,21.21
2022-08-07T10:09:01.025Z,21.04
2022-08-07T10:10:03.016Z,20.95
2022-08-07T10:11:59.918Z,21.40
2022-08-07T10:12:14.153Z,22.24
2022-08-07T10:13:00.918Z,23.01
2022-08-07T10:14:02.383Z,23.04
2022-08-07T10:15:00.882Z,22.76
2022-08-07T10:16:00.829Z,22.82
2022-08-07T10:17:01.113Z,23.10
2022-08-07T10:18:02.828Z,23.15
2022-08-07T10:19:00.851Z,23.42
2022-08-07T10:20:00.798Z,23.48
2022-08-07T10:21:00.835Z,23.75
2022-08-07T10:22:15.833Z,23.57
2022-08-07T10:23:00.829Z,22.70
2022-08-07T10:24:05.582Z,22.86
2022-08-07T10:25:00.741Z,23.09
2022-08-07T10:26:00.734Z,22.86
2022-08-07T10:27:00.731Z,23.53
2022-08-07T10:28:02.520Z,23.83
2022-08-07T10:29:00.718Z,24.16
2022-08-07T10:30:00.682Z,24.53
2022-08-07T10:31:00.682Z,23.72
2022-08-07T10:32:00.681Z,23.53
2022-08-07T10:33:00.668Z,23.36
2022-08-07T10:34:15.067Z,23.35
2022-08-07T10:35:00.633Z,23.63
2022-08-07T10:36:05.623Z,23.54
2022-08-07T10:37:03.819Z,23.36
2022-08-07T10:38:21.044Z,22.67
2022-08-07T10:39:00.615Z,22.51
2022-08-07T10:40:05.392Z,22.57
2022-08-07T10:41:00.598Z,22.51
2022-08-07T10:42:09.742Z,23.15
2022-08-07T10:43:00.552Z,23.72
2022-08-07T10:44:07.381Z,23.57
2022-08-07T10:45:00.505Z,23.90
2022-08-07T10:46:00.567Z,24.00
2022-08-07T10:47:00.489Z,23.68
2022-08-07T10:48:03.585Z,22.61
2022-08-07T10:49:00.526Z,21.98
2022-08-07T10:50:00.471Z,21.71
2022-08-07T10:51:00.470Z,22.37
2022-08-07T10:52:12.937Z,23.31
2022-08-07T10:53:05.393Z,23.40
2022-08-07T10:54:00.434Z,23.25
2022-08-07T10:55:01.455Z,23.40
2022-08-07T10:56:02.175Z,23.57
2022-08-07T10:57:00.364Z,23.13
2022-08-07T10:58:00.415Z,22.36
2022-08-07T10:59:00.375Z,22.62
2022-08-07T11:00:00.421Z,22.76
2022-08-07T11:01:00.770Z,23.00
2022-08-07T11:02:05.338Z,23.57
2022-08-07T11:03:00.386Z,24.21
2022-08-07T11:04:16.454Z,24.52
2022-08-07T11:05:01.680Z,24.80
2022-08-07T11:06:00.302Z,24.68
2022-08-07T11:07:00.364Z,24.52
2022-08-07T11:08:02.635Z,24.60
2022-08-07T11:09:00.274Z,24.71
2022-08-07T11:10:09.889Z,24.60
2022-08-07T11:11:00.311Z,23.87
2022-08-07T11:12:00.251Z,24.37
2022-08-07T11:13:02.277Z,24.67
2022-08-07T11:14:43.878Z,25.03
2022-08-07T11:15:01.058Z,25.05
2022-08-07T11:16:00.165Z,25.40
2022-08-07T11:17:01.960Z,25.39
2022-08-07T11:18:03.680Z,24.65
2022-08-07T11:19:00.257Z,23.85
2022-08-07T11:20:00.137Z,23.75
2022-08-07T11:21:00.211Z,23.01
2022-08-07T11:22:00.497Z,22.76
2022-08-07T11:23:00.154Z,23.01
2022-08-07T11:24:00.395Z,23.05
2022-08-07T11:25:00.167Z,22.51
2022-08-07T11:26:06.482Z,22.83
2022-08-07T11:27:01.195Z,22.94
2022-08-07T11:28:02.628Z,23.55
2022-08-07T11:29:00.066Z,23.75
2022-08-07T11:30:17.822Z,22.86
2022-08-07T11:31:00.107Z,22.58
2022-08-07T11:32:00.097Z,22.83
2022-08-07T11:33:00.035Z,23.35
2022-08-07T11:34:00.803Z,23.98
2022-08-07T11:35:00.980Z,24.35
2022-08-07T11:36:00.557Z,24.77
2022-08-07T11:37:00.391Z,24.77
2022-08-07T11:38:12.889Z,24.62
2022-08-07T11:38:59.988Z,24.85
2022-08-07T11:40:01.998Z,24.49
2022-08-07T11:40:59.972Z,24.16
2022-08-07T11:42:02.921Z,23.57
2022-08-07T11:42:59.927Z,23.84
2022-08-07T11:44:12.270Z,24.47
2022-08-07T11:44:59.943Z,24.81
2022-08-07T11:45:59.851Z,24.68
2022-08-07T11:46:59.861Z,24.50
2022-08-07T11:48:02.614Z,24.90
2022-08-07T11:49:51.344Z,25.39
2022-08-07T11:50:30.569Z,25.35
2022-08-07T11:51:00.149Z,25.42
2022-08-07T11:51:59.963Z,25.23
2022-08-07T11:53:01.240Z,23.70
2022-08-07T11:54:01.031Z,23.70
2022-08-07T11:54:59.963Z,23.75
2022-08-07T11:56:11.929Z,23.68
2022-08-07T11:56:59.795Z,22.70
2022-08-07T11:58:01.608Z,22.77
2022-08-07T11:58:59.812Z,23.01
2022-08-07T12:00:11.996Z,23.20
2022-08-07T12:01:02.327Z,22.98
2022-08-07T12:02:01.093Z,23.28
2022-08-07T12:02:59.954Z,23.51
2022-08-07T12:03:59.738Z,23.63
2022-08-07T12:04:59.792Z,23.32
2022-08-07T12:05:59.679Z,22.92
2022-08-07T12:07:07.921Z,22.94
2022-08-07T12:08:04.155Z,22.94
2022-08-07T12:08:59.773Z,22.51
2022-08-07T12:10:02.174Z,22.52
2022-08-07T12:11:08.077Z,22.72
2022-08-07T12:12:10.851Z,22.94
2022-08-07T12:12:59.572Z,23.27
2022-08-07T12:13:59.587Z,23.38
2022-08-07T12:15:01.192Z,23.65
2022-08-07T12:16:05.808Z,24.03
2022-08-07T12:17:00.178Z,23.54
2022-08-07T12:18:03.032Z,23.22
2022-08-07T12:18:59.554Z,22.88
2022-08-07T12:20:06.310Z,23.04
2022-08-07T12:21:00.616Z,23.10
2022-08-07T12:22:39.125Z,23.31
2022-08-07T12:22:59.715Z,23.40
2022-08-07T12:24:05.518Z,23.53
2022-08-07T12:25:02.208Z,24.13
2022-08-07T12:26:05.759Z,24.57
2022-08-07T12:26:59.433Z,24.71
2022-08-07T12:28:09.963Z,24.67
2022-08-07T12:29:00.711Z,24.87
2022-08-07T12:29:59.378Z,24.83
2022-08-07T12:30:59.422Z,24.68
2022-08-07T12:32:03.911Z,24.68
2022-08-07T12:32:59.348Z,25.15
2022-08-07T12:34:03.995Z,25.35
2022-08-07T12:34:59.356Z,25.50
2022-08-07T12:36:02.342Z,25.72
2022-08-07T12:36:59.332Z,25.92
2022-08-07T12:38:11.452Z,25.82
2022-08-07T12:38:59.460Z,25.45
2022-08-07T12:40:04.253Z,25.54
2022-08-07T12:41:00.330Z,25.35
2022-08-07T12:42:41.099Z,25.70
2022-08-07T12:43:00.233Z,26.02
2022-08-07T12:50:34.458Z,26.39
2022-08-07T12:51:22.259Z,26.51
2022-08-07T12:52:22.072Z,26.58
2022-08-07T12:53:22.371Z,26.25
2022-08-07T12:54:37.340Z,26.35
2022-08-07T12:55:40.634Z,26.13
2022-08-07T12:56:23.108Z,26.32
2022-08-07T12:57:23.082Z,26.62
2022-08-07T12:58:28.235Z,26.75
2022-08-07T12:59:24.368Z,26.65
2022-08-07T13:00:32.825Z,26.35
2022-08-07T13:01:23.136Z,26.05
2022-08-07T13:02:23.009Z,26.13
2022-08-07T13:06:21.537Z,25.90
2022-08-07T13:08:12.459Z,25.95
2022-08-07T13:08:18.690Z,25.85
2022-08-07T13:10:18.930Z,25.99
2022-08-07T13:10:28.700Z,25.45
2022-08-07T13:11:16.187Z,24.67
2022-08-07T13:12:15.103Z,23.69
2022-08-07T13:13:13.613Z,23.63
2022-08-07T13:14:13.512Z,23.50
2022-08-07T13:15:14.256Z,23.61
2022-08-07T13:16:13.532Z,24.02
2022-08-07T13:17:13.549Z,23.88
2022-08-07T13:18:26.111Z,23.91
2022-08-07T13:19:21.713Z,24.32
2022-08-07T13:20:13.449Z,24.93
2022-08-07T13:21:13.999Z,24.87
2022-08-07T13:22:19.702Z,24.68
2022-08-07T13:24:02.080Z,24.35
2022-08-07T13:24:14.403Z,24.52
2022-08-07T13:25:24.335Z,24.61
2022-08-07T13:26:16.026Z,24.52
2022-08-07T13:27:13.375Z,23.54
2022-08-07T13:28:18.717Z,23.76
2022-08-07T13:29:13.337Z,23.94
2022-08-07T13:30:19.686Z,24.12
2022-08-07T13:31:13.820Z,24.16
2022-08-07T13:32:31.287Z,24.18
2022-08-07T13:34:14.728Z,24.10
2022-08-07T13:34:33.726Z,24.32
2022-08-07T13:35:15.932Z,24.73
2022-08-07T13:36:17.683Z,25.08
2022-08-07T13:37:20.023Z,25.39
2022-08-07T13:38:14.530Z,25.62
2022-08-07T13:39:49.368Z,25.52
2022-08-07T13:44:10.300Z,24.02
2022-08-07T13:46:06.943Z,24.08
2022-08-07T13:46:23.942Z,24.50
2022-08-07T13:47:09.429Z,24.83
2022-08-07T13:48:08.395Z,24.95
2022-08-07T13:49:05.208Z,25.02
2022-08-07T13:50:34.119Z,24.53
2022-08-07T13:51:27.569Z,24.35
2022-08-07T13:52:30.731Z,23.88
2022-08-07T13:53:05.180Z,23.91
2022-08-07T13:54:05.117Z,23.78
2022-08-07T13:55:05.093Z,24.13
2022-08-07T13:56:05.103Z,24.50
2022-08-07T13:57:05.067Z,24.67
2022-08-07T13:58:05.099Z,24.52
2022-08-07T13:59:05.608Z,24.20
2022-08-07T14:00:05.048Z,23.90
2022-08-07T14:01:09.200Z,23.69
2022-08-07T14:02:05.393Z,23.91
2022-08-07T14:03:05.006Z,24.40
2022-08-07T14:04:07.934Z,24.77
2022-08-07T14:05:05.010Z,24.87
2022-08-07T14:06:04.967Z,25.09
2022-08-07T14:07:04.953Z,25.47
2022-08-07T14:08:04.947Z,25.67
2022-08-07T14:09:05.154Z,25.90
2022-08-07T14:10:23.130Z,25.99
2022-08-07T14:11:17.282Z,26.05
2022-08-07T14:12:07.450Z,26.17
2022-08-07T14:13:04.878Z,26.09
2022-08-07T14:14:04.879Z,25.65
2022-08-07T14:15:04.868Z,25.77
2022-08-07T14:16:04.851Z,25.88
2022-08-07T14:17:32.133Z,25.99
2022-08-07T14:18:23.662Z,26.05
2022-08-07T14:19:04.832Z,26.26
2022-08-07T14:20:43.086Z,26.18
2022-08-07T14:21:08.441Z,26.10
2022-08-07T14:22:11.620Z,26.21
2022-08-07T14:23:04.771Z,26.20
2022-08-07T14:24:04.760Z,26.33
2022-08-07T14:25:04.786Z,25.80
2022-08-07T14:26:04.737Z,24.60
2022-08-07T14:28:11.419Z,23.75
2022-08-07T14:28:11.750Z,24.53
2022-08-07T14:30:03.072Z,23.94
2022-08-07T14:30:11.268Z,24.42
2022-08-07T14:31:04.679Z,24.46
2022-08-07T14:32:04.677Z,23.94
2022-08-07T14:33:05.200Z,23.83
2022-08-07T14:34:07.343Z,24.02
2022-08-07T14:35:04.627Z,24.50
2022-08-07T14:36:06.439Z,24.73
2022-08-07T14:37:04.603Z,24.98
2022-08-07T14:38:06.054Z,24.55
2022-08-07T14:39:04.621Z,24.28
2022-08-07T14:40:17.436Z,24.31
2022-08-07T14:41:04.603Z,24.58
2022-08-07T14:42:19.794Z,24.78
2022-08-07T14:43:59.384Z,24.99
2022-08-07T14:44:08.022Z,25.28
2022-08-07T14:45:21.835Z,25.52
2022-08-07T14:46:05.699Z,25.65
2022-08-07T14:48:06.606Z,26.13
2022-08-07T14:49:57.512Z,25.62
2022-08-07T14:50:05.584Z,24.65
2022-08-07T14:51:05.615Z,24.42
2022-08-07T14:52:10.616Z,24.30
2022-08-07T14:53:08.069Z,24.84
2022-08-07T14:54:30.866Z,25.18
2022-08-07T14:55:05.529Z,25.33
2022-08-07T14:56:05.532Z,25.52
2022-08-07T14:57:05.565Z,25.61
2022-08-07T14:58:05.725Z,25.30
2022-08-07T15:00:07.089Z,25.36
2022-08-07T15:01:21.484Z,25.57
2022-08-07T15:02:06.502Z,25.75
2022-08-07T15:03:16.516Z,25.90
2022-08-07T15:04:05.878Z,25.90
2022-08-07T15:05:20.094Z,25.47
2022-08-07T15:06:05.416Z,25.17
2022-08-07T15:07:17.819Z,25.42
2022-08-07T15:08:05.408Z,25.47
2022-08-07T15:10:10.915Z,25.58
2022-08-07T15:11:05.528Z,25.67
2022-08-07T15:12:06.747Z,25.72
2022-08-07T15:13:06.681Z,25.62
2022-08-07T15:14:10.131Z,25.75
2022-08-07T15:16:11.434Z,25.94
2022-08-07T15:17:05.314Z,25.88
2022-08-07T15:18:05.347Z,25.94
2022-08-07T15:19:05.280Z,25.87
2022-08-07T15:20:33.160Z,25.80
2022-08-07T15:21:08.200Z,25.75
2022-08-07T15:22:07.018Z,25.87
2022-08-07T15:25:14.053Z,25.73
2022-08-07T15:26:06.260Z,25.64
2022-08-07T15:27:05.630Z,25.65
2022-08-07T15:28:36.316Z,25.51
2022-08-07T15:31:06.526Z,25.45
2022-08-07T15:32:05.210Z,25.55
2022-08-07T15:33:19.608Z,25.55
2022-08-07T15:34:05.126Z,24.73
2022-08-07T15:35:05.125Z,24.67
2022-08-07T15:36:05.688Z,24.90
2022-08-07T15:37:06.519Z,24.76
2022-08-07T15:38:31.196Z,24.57
2022-08-07T15:39:05.122Z,24.18
2022-08-07T15:40:05.079Z,24.00
2022-08-07T15:41:23.969Z,23.95
2022-08-07T15:42:46.705Z,24.21
2022-08-07T15:43:06.093Z,24.32
2022-08-07T15:44:05.033Z,24.31
2022-08-07T15:45:05.012Z,24.57
2022-08-07T15:46:31.660Z,24.81
2022-08-07T15:47:08.743Z,24.69
2022-08-07T15:48:05.039Z,24.39
2022-08-07T15:49:14.269Z,24.21
2022-08-07T15:50:06.710Z,24.06
2022-08-07T15:51:09.316Z,23.85
2022-08-07T15:52:04.974Z,23.84
2022-08-07T15:53:05.108Z,24.05
2022-08-07T15:54:04.900Z,24.37
2022-08-07T15:55:14.366Z,24.53
2022-08-07T15:56:06.933Z,24.68
2022-08-07T15:57:04.923Z,24.39
2022-08-07T15:58:04.915Z,24.55
2022-08-07T15:59:05.736Z,24.55
2022-08-07T16:00:06.578Z,24.65
2022-08-07T16:01:04.932Z,24.76
2022-08-07T16:02:04.909Z,24.83
2022-08-07T16:03:04.845Z,24.80
2022-08-07T16:04:04.801Z,24.84
2022-08-07T16:05:04.800Z,24.77
2022-08-07T16:06:04.790Z,24.84
2022-08-07T16:07:05.036Z,24.64
2022-08-07T16:08:33.520Z,24.61
2022-08-07T16:09:07.693Z,24.57
2022-08-07T16:10:04.789Z,24.49
2022-08-07T16:11:04.768Z,24.35
2022-08-07T16:12:04.737Z,24.39
2022-08-07T16:13:17.361Z,24.53
2022-08-07T16:14:04.726Z,24.13
2022-08-07T16:15:05.618Z,23.83
2022-08-07T16:16:06.496Z,23.94
2022-08-07T16:17:16.168Z,24.03
2022-08-07T16:18:04.655Z,24.22
2022-08-07T16:19:04.682Z,24.27
2022-08-07T16:20:04.787Z,24.53
2022-08-07T16:21:53.470Z,24.60
2022-08-07T16:22:14.877Z,24.57
2022-08-07T16:23:05.080Z,24.64
2022-08-07T16:24:09.145Z,24.50
2022-08-07T16:25:04.695Z,24.53
2022-08-07T16:26:04.606Z,24.50
2022-08-07T16:27:04.598Z,24.55
2022-08-07T16:28:04.582Z,24.71
2022-08-07T16:29:18.814Z,24.55
2022-08-07T16:30:29.662Z,24.45
2022-08-07T16:31:05.266Z,24.52
2022-08-07T16:32:05.635Z,24.58
2022-08-07T16:34:03.219Z,24.46
2022-08-07T16:34:09.908Z,24.46
2022-08-07T16:35:04.495Z,24.52
2022-08-07T16:36:04.730Z,24.47
2022-08-07T16:38:04.709Z,24.53
2022-08-07T16:38:11.376Z,24.00
2022-08-07T16:39:05.651Z,23.60
2022-08-07T16:40:04.655Z,23.33
2022-08-07T16:41:04.827Z,23.07
2022-08-07T16:42:04.428Z,23.13
2022-08-07T16:43:04.473Z,23.05
2022-08-07T16:44:40.438Z,23.15
2022-08-07T16:45:14.995Z,23.46
2022-08-07T16:46:21.035Z,23.57
2022-08-07T16:47:17.849Z,23.13
2022-08-07T16:48:06.367Z,22.97
2022-08-07T16:50:20.545Z,22.82
2022-08-07T16:50:20.624Z,22.79
2022-08-07T16:51:22.626Z,22.85
2022-08-07T16:52:50.884Z,23.05
2022-08-07T16:53:26.809Z,23.04
2022-08-07T16:54:09.048Z,22.97
2022-08-07T16:55:08.442Z,22.92
2022-08-07T16:56:04.364Z,23.10
2022-08-07T16:57:04.325Z,23.12
2022-08-07T16:58:04.369Z,23.19
2022-08-07T16:59:15.277Z,23.25
2022-08-07T17:00:04.260Z,23.28
2022-08-07T17:01:07.924Z,23.38
2022-08-07T17:02:04.205Z,23.12
2022-08-07T17:03:04.703Z,23.09
2022-08-07T17:04:04.235Z,22.94
2022-08-07T17:05:04.257Z,23.01
2022-08-07T17:06:29.789Z,23.13
2022-08-07T17:07:04.329Z,23.16
2022-08-07T17:08:04.168Z,23.16
2022-08-07T17:09:09.287Z,23.20
2022-08-07T17:10:09.285Z,23.22
2022-08-07T17:11:04.200Z,23.43
2022-08-07T17:12:35.956Z,23.57
2022-08-07T17:13:04.045Z,23.39
2022-08-07T17:14:19.688Z,23.01
2022-08-07T17:15:04.045Z,23.04
2022-08-07T17:16:04.047Z,23.05
2022-08-07T17:17:04.062Z,23.04
2022-08-07T17:18:04.033Z,23.16
2022-08-07T17:19:03.972Z,23.17
2022-08-07T17:20:13.987Z,23.38
2022-08-07T17:21:03.969Z,23.32
2022-08-07T17:22:03.982Z,23.39
2022-08-07T17:23:08.649Z,23.19
2022-08-07T17:24:03.956Z,23.10
2022-08-07T17:25:03.957Z,23.22
2022-08-07T17:26:03.895Z,23.23
2022-08-07T17:27:03.872Z,23.20
2022-08-07T17:28:06.702Z,23.25
2022-08-07T17:29:04.503Z,23.16
2022-08-07T17:30:14.948Z,23.19
2022-08-07T17:31:16.277Z,23.15
2022-08-07T17:32:06.344Z,23.23
2022-08-07T17:33:03.814Z,23.22
2022-08-07T17:34:15.341Z,23.27
2022-08-07T17:35:50.061Z,23.25
2022-08-07T17:36:05.856Z,23.31
2022-08-07T17:37:09.628Z,23.17
2022-08-07T17:38:05.482Z,23.22
2022-08-07T17:39:10.211Z,23.15
2022-08-07T17:40:10.996Z,23.19
2022-08-07T17:42:00.998Z,23.09
2022-08-07T17:42:06.574Z,23.07
2022-08-07T17:43:03.770Z,23.07
2022-08-07T17:44:05.765Z,23.00
2022-08-07T17:45:03.686Z,22.94
2022-08-07T17:46:03.725Z,22.91
2022-08-07T17:47:03.644Z,22.86
2022-08-07T17:48:03.636Z,22.92
2022-08-07T17:49:08.940Z,23.07
2022-08-07T17:50:03.617Z,23.05
2022-08-07T17:51:03.612Z,23.01
2022-08-07T17:52:03.595Z,22.97
2022-08-07T17:53:05.877Z,22.91
2022-08-07T17:54:06.127Z,22.94
2022-08-07T17:55:04.377Z,22.95
2022-08-07T17:56:06.761Z,22.80
2022-08-07T17:57:03.538Z,22.80
2022-08-07T17:58:05.024Z,22.70
2022-08-07T17:59:03.501Z,22.64
2022-08-07T18:00:03.481Z,22.70
2022-08-07T18:01:03.505Z,22.62
2022-08-07T18:02:04.489Z,22.58
2022-08-07T18:03:05.263Z,22.65
2022-08-07T18:04:07.166Z,22.68
2022-08-07T18:05:14.252Z,22.67
2022-08-07T18:06:06.649Z,22.61
2022-08-07T18:07:20.816Z,22.57
2022-08-07T18:08:03.482Z,22.52
2022-08-07T18:09:06.196Z,22.36
2022-08-07T18:10:07.450Z,22.31
2022-08-07T18:11:53.934Z,22.24
2022-08-07T18:12:17.624Z,22.14
2022-08-07T18:13:03.371Z,22.03
2022-08-07T18:14:03.466Z,22.00
2022-08-07T18:15:08.510Z,21.96
2022-08-07T18:16:03.378Z,21.83
2022-08-07T18:17:05.306Z,21.77
2022-08-07T18:18:39.858Z,21.83
2022-08-07T18:21:05.947Z,21.65
2022-08-07T18:21:06.520Z,21.54
2022-08-07T18:21:40.104Z,21.52
2022-08-07T18:22:06.336Z,21.35
2022-08-07T18:23:04.537Z,21.17
2022-08-07T18:24:07.237Z,20.95
2022-08-07T18:25:19.348Z,20.91
2022-08-07T18:26:03.211Z,20.66
2022-08-07T18:27:03.190Z,20.52
2022-08-07T18:28:03.143Z,20.52
2022-08-07T18:29:03.203Z,20.43
2022-08-07T18:30:05.886Z,20.31
2022-08-07T18:31:03.162Z,20.20
2022-08-07T18:32:03.214Z,20.11
2022-08-07T18:33:12.097Z,20.17
2022-08-07T18:34:03.080Z,20.05
2022-08-07T18:35:03.099Z,19.88
2022-08-07T18:36:03.093Z,19.80
2022-08-07T18:37:09.680Z,19.65
2022-08-07T18:38:57.525Z,19.65
2022-08-07T18:40:06.832Z,19.40
2022-08-07T18:40:06.961Z,19.31
2022-08-07T18:41:09.401Z,19.19
2022-08-07T18:42:04.000Z,19.14
2022-08-07T18:43:03.213Z,19.04
2022-08-07T18:44:04.078Z,19.06
2022-08-07T18:45:43.639Z,19.08
2022-08-07T18:46:25.592Z,18.92
2022-08-07T18:47:02.981Z,18.88
2022-08-07T18:48:02.948Z,18.84
2022-08-07T18:50:06.788Z,18.69
2022-08-07T18:50:33.150Z,18.81
2022-08-07T18:51:02.859Z,18.60
2022-08-07T18:52:25.647Z,18.63
2022-08-07T18:53:06.089Z,18.70
2022-08-07T18:54:02.827Z,18.47
2022-08-07T18:55:42.020Z,18.39
2022-08-07T18:56:02.834Z,18.35
2022-08-07T18:57:40.095Z,18.35
2022-08-07T18:58:02.799Z,18.45
2022-08-07T19:02:32.811Z,18.72
2022-08-07T19:03:15.761Z,18.70
2022-08-07T19:04:15.948Z,18.65
2022-08-07T19:05:15.786Z,18.51
2022-08-07T19:06:16.290Z,18.51
2022-08-07T19:07:12.515Z,18.44
2022-08-07T19:08:12.464Z,18.39
2022-08-07T19:09:57.641Z,18.36
2022-08-07T19:10:21.292Z,18.29
2022-08-07T19:11:34.677Z,18.30
2022-08-07T19:12:12.430Z,18.30
2022-08-07T19:13:21.983Z,18.37
2022-08-07T19:14:19.833Z,18.20
2022-08-07T19:16:03.792Z,18.18
2022-08-07T19:16:43.724Z,18.25
2022-08-07T19:17:52.462Z,18.32
2022-08-07T19:18:12.358Z,18.35
2022-08-07T19:19:13.150Z,18.29
2022-08-07T19:20:29.170Z,18.12
2022-08-07T19:21:44.336Z,18.10
2022-08-07T19:22:12.311Z,18.07
2022-08-07T19:23:18.189Z,18.08
2022-08-07T19:24:12.290Z,18.08
2022-08-07T19:25:12.283Z,18.10
2022-08-07T19:26:23.123Z,18.11
2022-08-07T19:28:29.493Z,18.03
2022-08-07T19:28:57.381Z,17.96
2022-08-07T19:31:01.927Z,17.96
2022-08-07T19:31:04.684Z,18.03
2022-08-07T19:31:37.220Z,18.05
2022-08-07T19:32:17.439Z,18.02
2022-08-07T19:33:15.725Z,18.00
2022-08-07T19:34:12.179Z,17.79
2022-08-07T19:35:12.146Z,17.78
2022-08-07T19:36:12.150Z,17.71
2022-08-07T19:37:16.946Z,17.84
2022-08-07T19:38:15.682Z,17.64
2022-08-07T19:39:12.188Z,17.59
2022-08-07T19:40:12.150Z,17.59
2022-08-07T19:41:12.175Z,17.59
2022-08-07T19:42:40.206Z,17.58
2022-08-07T19:43:21.171Z,17.46
2022-08-07T19:44:21.779Z,17.28
2022-08-07T19:45:12.043Z,17.28
2022-08-07T19:46:12.059Z,17.28
2022-08-07T19:47:12.023Z,17.25
2022-08-07T19:48:18.890Z,17.23
2022-08-07T19:49:12.002Z,17.15
2022-08-07T19:50:43.643Z,17.21
2022-08-07T19:51:19.437Z,17.31
2022-08-07T19:52:18.366Z,17.37
2022-08-07T19:54:33.108Z,17.33
2022-08-07T19:54:33.178Z,17.44
2022-08-07T19:55:11.953Z,17.41
2022-08-07T19:56:58.599Z,17.49
2022-08-07T19:58:04.472Z,17.46
2022-08-07T19:58:13.669Z,17.51
2022-08-07T19:59:13.067Z,17.36
2022-08-07T20:00:27.984Z,17.41
2022-08-07T20:01:13.016Z,17.49
2022-08-07T20:02:25.908Z,17.40
2022-08-07T20:03:33.811Z,17.36
2022-08-07T20:04:13.049Z,17.40
2022-08-07T20:05:12.976Z,17.34
2022-08-07T20:06:15.201Z,17.23
2022-08-07T20:07:12.963Z,17.21
2022-08-07T20:08:12.964Z,17.25
2022-08-07T20:10:34.261Z,17.34
2022-08-07T20:10:35.995Z,17.36
2022-08-07T20:11:12.943Z,17.48
2022-08-07T20:12:31.293Z,17.23
2022-08-07T20:13:22.386Z,17.28
2022-08-07T20:14:13.755Z,17.43
2022-08-07T20:18:01.456Z,17.48
2022-08-07T20:18:48.998Z,17.43
2022-08-07T20:19:58.214Z,17.46
2022-08-07T20:20:47.745Z,17.46
2022-08-07T20:21:48.438Z,17.43
2022-08-07T20:22:47.697Z,17.48
2022-08-07T20:23:51.976Z,17.48
2022-08-07T20:24:48.682Z,17.51
2022-08-07T20:25:50.892Z,17.52
2022-08-07T20:26:50.200Z,17.56
2022-08-07T20:27:58.268Z,17.54
2022-08-07T20:28:47.659Z,17.58
2022-08-07T20:29:56.951Z,17.49
2022-08-07T20:30:47.661Z,17.59
2022-08-07T20:31:47.584Z,17.56
2022-08-07T20:32:47.571Z,17.64
2022-08-07T20:33:47.578Z,17.68
2022-08-07T20:34:51.165Z,17.74
2022-08-07T20:35:52.012Z,17.72
2022-08-07T20:36:51.686Z,17.72
2022-08-07T20:37:59.078Z,17.77
2022-08-07T20:38:59.616Z,17.74
2022-08-07T20:40:02.042Z,17.81
2022-08-07T20:40:51.596Z,17.79
2022-08-07T20:41:47.468Z,17.75
2022-08-07T20:42:47.531Z,17.81
2022-08-07T20:43:48.090Z,17.84
2022-08-07T20:44:49.390Z,17.77
2022-08-07T20:46:28.154Z,17.75
2022-08-07T20:46:47.621Z,17.70
2022-08-07T20:47:55.342Z,17.72
2022-08-07T20:49:54.246Z,17.70
2022-08-07T20:49:58.445Z,17.74
2022-08-07T20:50:47.654Z,17.71
2022-08-07T20:51:50.284Z,17.72
2022-08-07T20:52:51.100Z,17.66
2022-08-07T20:54:03.570Z,17.71
2022-08-07T20:54:53.801Z,17.87
2022-08-07T20:55:47.739Z,17.77
2022-08-07T20:56:48.317Z,17.78
2022-08-07T20:57:47.469Z,17.77
2022-08-07T20:58:47.318Z,17.74
2022-08-07T21:00:08.290Z,17.70
2022-08-07T21:00:47.277Z,17.64
2022-08-07T21:01:55.154Z,17.68
2022-08-07T21:02:54.071Z,17.55
2022-08-07T21:04:13.175Z,17.56
2022-08-07T21:04:47.258Z,17.46
2022-08-07T21:05:54.349Z,17.63
2022-08-07T21:06:53.402Z,17.55
2022-08-07T21:07:49.747Z,17.56
2022-08-07T21:08:47.222Z,17.68
2022-08-07T21:09:51.672Z,17.68
2022-08-07T21:10:47.222Z,17.71
2022-08-07T21:11:51.050Z,17.70
2022-08-07T21:12:47.319Z,17.71
2022-08-07T21:14:16.269Z,17.68
2022-08-07T21:14:48.466Z,17.72
2022-08-07T21:15:58.452Z,17.70
2022-08-07T21:17:06.481Z,17.64
2022-08-07T21:18:06.203Z,17.66
2022-08-07T21:18:50.588Z,17.55
2022-08-07T21:20:01.088Z,17.71
2022-08-07T21:20:48.255Z,17.51
2022-08-07T21:21:57.047Z,17.58
2022-08-07T21:22:51.306Z,17.55
2022-08-07T21:23:50.645Z,17.56
2022-08-07T21:24:48.957Z,17.62
2022-08-07T21:25:52.217Z,17.63
2022-08-07T21:26:49.195Z,17.70
2022-08-07T21:27:48.200Z,17.63
2022-08-07T21:28:50.883Z,17.59
2022-08-07T21:29:52.796Z,17.63
2022-08-07T21:30:48.201Z,17.66
2022-08-07T21:32:42.390Z,17.66
2022-08-07T21:32:52.094Z,17.54
2022-08-07T21:33:48.165Z,17.44
2022-08-07T21:34:48.853Z,17.43
2022-08-07T21:36:04.928Z,17.36
2022-08-07T21:36:49.955Z,17.51
2022-08-07T21:37:57.911Z,17.46
2022-08-07T21:38:49.795Z,17.43
2022-08-07T21:39:51.859Z,17.41
2022-08-07T21:40:49.469Z,17.43
2022-08-07T21:41:52.139Z,17.54
2022-08-07T21:42:48.679Z,17.52
2022-08-07T21:43:56.547Z,17.52
2022-08-07T21:44:50.995Z,17.40
2022-08-07T21:46:09.795Z,17.40
2022-08-07T21:46:48.001Z,17.46
2022-08-07T21:47:50.471Z,17.38
2022-08-07T21:48:48.385Z,17.37
2022-08-07T21:50:01.070Z,17.52